sensor_id;sensor_type;location;lat;lon;timestamp;temperature;humidity
21238;DHT22;10777;50.828;3.264;2022-09-09T00:01:28;17.50;99.90
21238;DHT22;10777;50.828;3.264;2022-09-09T00:04:12;17.30;99.90
21238;DHT22;10777;50.828;3.264;2022-09-09T00:06:46;17.40;99.90
21238;DHT22;10777;50.828;3.264;2022-09-09T00:09:21;17.40;99.90
21238;DHT22;10777;50.828;3.264;2022-09-09T00:11:52;17.20;99.90
21238;DHT22;10777;50.828;3.264;2022-09-09T00:14:32;17.20;99.90
21238;DHT22;10777;50.828;3.264;2022-09-09T00:17:04;17.20;99.90
21238;DHT22;10777;50.828;3.264;2022-09-09T00:22:25;17.30;99.90
21238;DHT22;10777;50.828;3.264;2022-09-09T00:24:54;17.40;99.90
21238;DHT22;10777;50.828;3.264;2022-09-09T00:27:31;17.30;99.90
21238;DHT22;10777;50.828;3.264;2022-09-09T00:30:13;17.30;99.90
21238;DHT22;10777;50.828;3.264;2022-09-09T00:32:39;17.20;99.90
21238;DHT22;10777;50.828;3.264;2022-09-09T00:35:27;17.30;99.90
21238;DHT22;10777;50.828;3.264;2022-09-09T00:37:58;17.30;99.90
21238;DHT22;10777;50.828;3.264;2022-09-09T00:40:32;17.40;99.90
21238;DHT22;10777;50.828;3.264;2022-09-09T00:43:26;17.30;99.90
21238;DHT22;10777;50.828;3.264;2022-09-09T00:46:32;17.10;99.90
21238;DHT22;10777;50.828;3.264;2022-09-09T00:52:19;17.20;99.90
21238;DHT22;10777;50.828;3.264;2022-09-09T00:57:40;16.90;99.90
21238;DHT22;10777;50.828;3.264;2022-09-09T01:00:27;17.00;99.90
21238;DHT22;10777;50.828;3.264;2022-09-09T01:03:19;17.00;99.90
21238;DHT22;10777;50.828;3.264;2022-09-09T01:06:14;16.90;99.90
21238;DHT22;10777;50.828;3.264;2022-09-09T01:14:35;16.80;99.90
21238;DHT22;10777;50.828;3.264;2022-09-09T01:17:24;16.80;99.90
21238;DHT22;10777;50.828;3.264;2022-09-09T01:20:15;16.70;99.90
21238;DHT22;10777;50.828;3.264;2022-09-09T01:23:07;16.60;99.90
21238;DHT22;10777;50.828;3.264;2022-09-09T01:26:04;16.80;99.90
21238;DHT22;10777;50.828;3.264;2022-09-09T01:28:35;16.80;99.90
21238;DHT22;10777;50.828;3.264;2022-09-09T01:31:04;16.80;99.90
21238;DHT22;10777;50.828;3.264;2022-09-09T01:33:32;16.60;99.90
21238;DHT22;10777;50.828;3.264;2022-09-09T01:36:09;16.60;99.90
21238;DHT22;10777;50.828;3.264;2022-09-09T01:38:37;16.50;99.90
21238;DHT22;10777;50.828;3.264;2022-09-09T01:41:04;16.50;99.90
21238;DHT22;10777;50.828;3.264;2022-09-09T01:43:30;16.50;99.90
21238;DHT22;10777;50.828;3.264;2022-09-09T01:45:59;16.50;99.90
21238;DHT22;10777;50.828;3.264;2022-09-09T01:48:27;16.50;99.90
21238;DHT22;10777;50.828;3.264;2022-09-09T01:50:52;16.60;99.90
21238;DHT22;10777;50.828;3.264;2022-09-09T01:53:20;16.60;99.90
21238;DHT22;10777;50.828;3.264;2022-09-09T01:55:57;16.60;99.90
21238;DHT22;10777;50.828;3.264;2022-09-09T01:58:38;16.60;99.90
21238;DHT22;10777;50.828;3.264;2022-09-09T02:04:27;16.60;99.90
21238;DHT22;10777;50.828;3.264;2022-09-09T02:06:56;16.70;99.90
21238;DHT22;10777;50.828;3.264;2022-09-09T02:09:24;16.60;99.90
21238;DHT22;10777;50.828;3.264;2022-09-09T02:11:56;16.70;99.90
21238;DHT22;10777;50.828;3.264;2022-09-09T02:14:29;16.80;99.90
21238;DHT22;10777;50.828;3.264;2022-09-09T02:17:03;16.90;99.90
21238;DHT22;10777;50.828;3.264;2022-09-09T02:19:36;16.80;99.90
21238;DHT22;10777;50.828;3.264;2022-09-09T02:22:03;16.80;99.90
21238;DHT22;10777;50.828;3.264;2022-09-09T02:24:33;16.80;99.90
21238;DHT22;10777;50.828;3.264;2022-09-09T02:27:02;16.90;99.90
21238;DHT22;10777;50.828;3.264;2022-09-09T02:29:33;16.90;99.90
21238;DHT22;10777;50.828;3.264;2022-09-09T02:32:03;16.80;99.90
21238;DHT22;10777;50.828;3.264;2022-09-09T02:34:32;16.80;99.90
21238;DHT22;10777;50.828;3.264;2022-09-09T02:36:59;16.70;99.90
21238;DHT22;10777;50.828;3.264;2022-09-09T02:39:26;16.70;99.90
21238;DHT22;10777;50.828;3.264;2022-09-09T02:41:52;16.80;99.90
21238;DHT22;10777;50.828;3.264;2022-09-09T02:44:18;17.00;99.90
21238;DHT22;10777;50.828;3.264;2022-09-09T02:47:07;17.00;99.90
21238;DHT22;10777;50.828;3.264;2022-09-09T02:49:51;17.00;99.90
21238;DHT22;10777;50.828;3.264;2022-09-09T02:52:27;16.80;99.90
21238;DHT22;10777;50.828;3.264;2022-09-09T02:55:02;16.80;99.90
21238;DHT22;10777;50.828;3.264;2022-09-09T02:57:30;16.70;99.90
21238;DHT22;10777;50.828;3.264;2022-09-09T02:59:58;16.70;99.90
21238;DHT22;10777;50.828;3.264;2022-09-09T03:02:25;16.80;99.90
21238;DHT22;10777;50.828;3.264;2022-09-09T03:04:50;16.80;99.90
21238;DHT22;10777;50.828;3.264;2022-09-09T03:07:18;16.90;99.90
21238;DHT22;10777;50.828;3.264;2022-09-09T03:09:44;17.00;99.90
21238;DHT22;10777;50.828;3.264;2022-09-09T03:12:10;17.00;99.90
21238;DHT22;10777;50.828;3.264;2022-09-09T03:14:37;17.10;99.90
21238;DHT22;10777;50.828;3.264;2022-09-09T03:17:04;17.00;99.90
21238;DHT22;10777;50.828;3.264;2022-09-09T03:19:30;17.00;99.90
21238;DHT22;10777;50.828;3.264;2022-09-09T03:21:57;17.00;99.90
21238;DHT22;10777;50.828;3.264;2022-09-09T03:24:24;17.00;99.90
21238;DHT22;10777;50.828;3.264;2022-09-09T03:26:49;17.20;99.90
21238;DHT22;10777;50.828;3.264;2022-09-09T03:29:16;17.20;99.90
21238;DHT22;10777;50.828;3.264;2022-09-09T03:31:43;17.10;99.90
21238;DHT22;10777;50.828;3.264;2022-09-09T03:34:09;17.00;99.90
21238;DHT22;10777;50.828;3.264;2022-09-09T03:36:34;17.10;99.90
21238;DHT22;10777;50.828;3.264;2022-09-09T03:39:00;17.10;99.90
21238;DHT22;10777;50.828;3.264;2022-09-09T03:41:28;17.20;99.90
21238;DHT22;10777;50.828;3.264;2022-09-09T03:43:54;17.20;99.90
21238;DHT22;10777;50.828;3.264;2022-09-09T03:46:22;17.20;99.90
21238;DHT22;10777;50.828;3.264;2022-09-09T03:48:48;17.30;99.90
21238;DHT22;10777;50.828;3.264;2022-09-09T03:51:14;17.20;99.90
21238;DHT22;10777;50.828;3.264;2022-09-09T03:53:41;17.10;99.90
21238;DHT22;10777;50.828;3.264;2022-09-09T03:56:07;17.00;99.90
21238;DHT22;10777;50.828;3.264;2022-09-09T03:58:34;17.00;99.90
21238;DHT22;10777;50.828;3.264;2022-09-09T04:01:03;17.00;99.90
21238;DHT22;10777;50.828;3.264;2022-09-09T04:03:29;17.00;99.90
21238;DHT22;10777;50.828;3.264;2022-09-09T04:05:57;17.00;99.90
21238;DHT22;10777;50.828;3.264;2022-09-09T04:08:23;17.00;99.90
21238;DHT22;10777;50.828;3.264;2022-09-09T04:10:53;17.10;99.90
21238;DHT22;10777;50.828;3.264;2022-09-09T04:13:24;17.20;99.90
21238;DHT22;10777;50.828;3.264;2022-09-09T04:15:52;17.20;99.90
21238;DHT22;10777;50.828;3.264;2022-09-09T04:18:19;17.00;99.90
21238;DHT22;10777;50.828;3.264;2022-09-09T04:20:48;17.10;99.90
21238;DHT22;10777;50.828;3.264;2022-09-09T04:23:14;16.90;99.90
21238;DHT22;10777;50.828;3.264;2022-09-09T04:25:49;16.70;99.90
21238;DHT22;10777;50.828;3.264;2022-09-09T04:28:16;16.80;99.90
21238;DHT22;10777;50.828;3.264;2022-09-09T04:30:43;16.90;99.90
21238;DHT22;10777;50.828;3.264;2022-09-09T04:33:10;16.90;99.90
21238;DHT22;10777;50.828;3.264;2022-09-09T04:35:36;17.00;99.90
21238;DHT22;10777;50.828;3.264;2022-09-09T04:38:03;17.00;99.90
21238;DHT22;10777;50.828;3.264;2022-09-09T04:40:30;16.80;99.90
21238;DHT22;10777;50.828;3.264;2022-09-09T04:42:58;16.70;99.90
21238;DHT22;10777;50.828;3.264;2022-09-09T04:45:24;16.90;99.90
21238;DHT22;10777;50.828;3.264;2022-09-09T04:47:51;16.80;99.90
21238;DHT22;10777;50.828;3.264;2022-09-09T04:50:17;16.80;99.90
21238;DHT22;10777;50.828;3.264;2022-09-09T04:52:44;16.90;99.90
21238;DHT22;10777;50.828;3.264;2022-09-09T04:55:09;17.00;99.90
21238;DHT22;10777;50.828;3.264;2022-09-09T04:57:35;17.10;99.90
21238;DHT22;10777;50.828;3.264;2022-09-09T05:00:02;17.00;99.90
21238;DHT22;10777;50.828;3.264;2022-09-09T05:02:28;16.90;99.90
21238;DHT22;10777;50.828;3.264;2022-09-09T05:04:55;17.00;99.90
21238;DHT22;10777;50.828;3.264;2022-09-09T05:07:21;17.00;99.90
21238;DHT22;10777;50.828;3.264;2022-09-09T05:09:47;17.10;99.90
21238;DHT22;10777;50.828;3.264;2022-09-09T05:12:15;17.30;99.90
21238;DHT22;10777;50.828;3.264;2022-09-09T05:14:42;17.20;99.90
21238;DHT22;10777;50.828;3.264;2022-09-09T05:17:09;17.10;99.90
21238;DHT22;10777;50.828;3.264;2022-09-09T05:19:35;17.20;99.90
21238;DHT22;10777;50.828;3.264;2022-09-09T05:22:00;17.00;99.90
21238;DHT22;10777;50.828;3.264;2022-09-09T05:24:27;17.00;99.90
21238;DHT22;10777;50.828;3.264;2022-09-09T05:26:52;16.90;99.90
21238;DHT22;10777;50.828;3.264;2022-09-09T05:29:18;16.90;99.90
21238;DHT22;10777;50.828;3.264;2022-09-09T05:31:45;17.00;99.90
21238;DHT22;10777;50.828;3.264;2022-09-09T05:34:12;17.00;99.90
21238;DHT22;10777;50.828;3.264;2022-09-09T05:36:38;16.80;99.90
21238;DHT22;10777;50.828;3.264;2022-09-09T05:39:04;16.80;99.90
21238;DHT22;10777;50.828;3.264;2022-09-09T05:41:29;16.80;99.90
21238;DHT22;10777;50.828;3.264;2022-09-09T05:43:57;16.70;99.90
21238;DHT22;10777;50.828;3.264;2022-09-09T05:46:24;16.70;99.90
21238;DHT22;10777;50.828;3.264;2022-09-09T05:48:51;16.60;99.90
21238;DHT22;10777;50.828;3.264;2022-09-09T05:51:19;16.80;99.90
21238;DHT22;10777;50.828;3.264;2022-09-09T05:53:47;16.90;99.90
21238;DHT22;10777;50.828;3.264;2022-09-09T05:56:15;16.80;99.90
21238;DHT22;10777;50.828;3.264;2022-09-09T05:58:43;16.80;99.90
21238;DHT22;10777;50.828;3.264;2022-09-09T06:01:12;16.70;99.90
21238;DHT22;10777;50.828;3.264;2022-09-09T06:03:40;16.80;99.90
21238;DHT22;10777;50.828;3.264;2022-09-09T06:06:09;16.70;99.90
21238;DHT22;10777;50.828;3.264;2022-09-09T06:08:36;16.70;99.90
21238;DHT22;10777;50.828;3.264;2022-09-09T06:11:06;17.00;99.90
21238;DHT22;10777;50.828;3.264;2022-09-09T06:13:33;17.00;99.90
21238;DHT22;10777;50.828;3.264;2022-09-09T06:16:06;17.10;99.90
21238;DHT22;10777;50.828;3.264;2022-09-09T06:18:33;17.10;99.90
21238;DHT22;10777;50.828;3.264;2022-09-09T06:21:01;17.00;99.90
21238;DHT22;10777;50.828;3.264;2022-09-09T06:23:27;16.90;99.90
21238;DHT22;10777;50.828;3.264;2022-09-09T06:26:15;16.90;99.90
21238;DHT22;10777;50.828;3.264;2022-09-09T06:28:44;17.00;99.90
21238;DHT22;10777;50.828;3.264;2022-09-09T06:31:13;17.00;99.90
21238;DHT22;10777;50.828;3.264;2022-09-09T06:33:41;16.90;99.90
21238;DHT22;10777;50.828;3.264;2022-09-09T06:36:13;16.90;99.90
21238;DHT22;10777;50.828;3.264;2022-09-09T06:38:40;16.80;99.90
21238;DHT22;10777;50.828;3.264;2022-09-09T06:41:07;17.00;99.90
21238;DHT22;10777;50.828;3.264;2022-09-09T06:43:33;17.10;99.90
21238;DHT22;10777;50.828;3.264;2022-09-09T06:46:04;16.90;99.90
21238;DHT22;10777;50.828;3.264;2022-09-09T06:48:30;16.80;99.90
21238;DHT22;10777;50.828;3.264;2022-09-09T06:51:07;16.80;99.90
21238;DHT22;10777;50.828;3.264;2022-09-09T06:53:34;16.90;99.90
21238;DHT22;10777;50.828;3.264;2022-09-09T06:56:01;16.90;99.90
21238;DHT22;10777;50.828;3.264;2022-09-09T06:58:28;16.80;99.90
21238;DHT22;10777;50.828;3.264;2022-09-09T07:01:04;16.80;99.90
21238;DHT22;10777;50.828;3.264;2022-09-09T07:03:29;16.70;99.90
21238;DHT22;10777;50.828;3.264;2022-09-09T07:05:56;16.70;99.90
21238;DHT22;10777;50.828;3.264;2022-09-09T07:08:22;16.70;99.90
21238;DHT22;10777;50.828;3.264;2022-09-09T07:10:48;16.70;99.90
21238;DHT22;10777;50.828;3.264;2022-09-09T07:13:13;16.60;99.90
21238;DHT22;10777;50.828;3.264;2022-09-09T07:15:41;16.60;99.90
21238;DHT22;10777;50.828;3.264;2022-09-09T07:18:07;16.70;99.90
21238;DHT22;10777;50.828;3.264;2022-09-09T07:20:35;16.50;99.90
21238;DHT22;10777;50.828;3.264;2022-09-09T07:23:01;16.60;99.90
21238;DHT22;10777;50.828;3.264;2022-09-09T07:25:26;16.50;99.90
21238;DHT22;10777;50.828;3.264;2022-09-09T07:27:56;16.40;99.90
21238;DHT22;10777;50.828;3.264;2022-09-09T07:30:22;16.50;99.90
21238;DHT22;10777;50.828;3.264;2022-09-09T07:32:48;16.60;99.90
21238;DHT22;10777;50.828;3.264;2022-09-09T07:35:16;16.80;99.90
21238;DHT22;10777;50.828;3.264;2022-09-09T07:37:42;16.70;99.90
21238;DHT22;10777;50.828;3.264;2022-09-09T07:40:08;16.60;99.90
21238;DHT22;10777;50.828;3.264;2022-09-09T07:42:34;16.60;99.90
21238;DHT22;10777;50.828;3.264;2022-09-09T07:44:59;16.70;99.90
21238;DHT22;10777;50.828;3.264;2022-09-09T07:47:25;16.80;99.90
21238;DHT22;10777;50.828;3.264;2022-09-09T07:49:51;16.80;99.90
21238;DHT22;10777;50.828;3.264;2022-09-09T07:52:18;16.90;99.90
21238;DHT22;10777;50.828;3.264;2022-09-09T07:54:45;16.90;99.90
21238;DHT22;10777;50.828;3.264;2022-09-09T07:57:11;16.90;99.90
21238;DHT22;10777;50.828;3.264;2022-09-09T07:59:38;16.90;99.90
21238;DHT22;10777;50.828;3.264;2022-09-09T08:02:04;17.00;99.90
21238;DHT22;10777;50.828;3.264;2022-09-09T08:04:30;17.00;99.90
21238;DHT22;10777;50.828;3.264;2022-09-09T08:06:58;17.20;99.90
21238;DHT22;10777;50.828;3.264;2022-09-09T08:09:25;17.30;99.90
21238;DHT22;10777;50.828;3.264;2022-09-09T08:11:54;17.20;99.90
21238;DHT22;10777;50.828;3.264;2022-09-09T08:14:22;17.40;99.90
21238;DHT22;10777;50.828;3.264;2022-09-09T08:16:49;17.40;99.90
21238;DHT22;10777;50.828;3.264;2022-09-09T08:19:16;17.40;99.90
21238;DHT22;10777;50.828;3.264;2022-09-09T08:21:43;17.40;99.90
21238;DHT22;10777;50.828;3.264;2022-09-09T08:24:11;17.40;99.90
21238;DHT22;10777;50.828;3.264;2022-09-09T08:26:40;17.40;99.90
21238;DHT22;10777;50.828;3.264;2022-09-09T08:29:08;17.20;99.90
21238;DHT22;10777;50.828;3.264;2022-09-09T08:31:38;17.30;99.90
21238;DHT22;10777;50.828;3.264;2022-09-09T08:34:06;17.50;99.90
21238;DHT22;10777;50.828;3.264;2022-09-09T08:36:34;17.60;99.90
21238;DHT22;10777;50.828;3.264;2022-09-09T08:39:02;17.70;99.90
21238;DHT22;10777;50.828;3.264;2022-09-09T08:44:59;17.80;99.90
21238;DHT22;10777;50.828;3.264;2022-09-09T08:47:53;17.90;99.90
21238;DHT22;10777;50.828;3.264;2022-09-09T08:50:32;18.00;99.90
21238;DHT22;10777;50.828;3.264;2022-09-09T08:53:09;18.00;99.90
21238;DHT22;10777;50.828;3.264;2022-09-09T08:55:57;18.10;99.90
21238;DHT22;10777;50.828;3.264;2022-09-09T08:58:29;18.20;99.90
21238;DHT22;10777;50.828;3.264;2022-09-09T09:01:26;18.40;99.90
21238;DHT22;10777;50.828;3.264;2022-09-09T09:04:19;18.20;99.90
21238;DHT22;10777;50.828;3.264;2022-09-09T09:07:26;18.50;99.90
21238;DHT22;10777;50.828;3.264;2022-09-09T09:10:12;18.60;99.90
21238;DHT22;10777;50.828;3.264;2022-09-09T09:12:44;18.70;99.90
21238;DHT22;10777;50.828;3.264;2022-09-09T09:15:24;18.80;99.90
21238;DHT22;10777;50.828;3.264;2022-09-09T09:17:50;18.90;99.90
21238;DHT22;10777;50.828;3.264;2022-09-09T09:20:21;18.60;99.90
21238;DHT22;10777;50.828;3.264;2022-09-09T09:22:51;18.70;99.90
21238;DHT22;10777;50.828;3.264;2022-09-09T09:25:27;18.60;99.90
21238;DHT22;10777;50.828;3.264;2022-09-09T09:28:12;18.60;99.90
21238;DHT22;10777;50.828;3.264;2022-09-09T09:30:50;18.50;99.90
21238;DHT22;10777;50.828;3.264;2022-09-09T09:33:32;18.50;99.90
21238;DHT22;10777;50.828;3.264;2022-09-09T09:39:07;18.80;99.90
21238;DHT22;10777;50.828;3.264;2022-09-09T09:41:38;18.80;99.90
21238;DHT22;10777;50.828;3.264;2022-09-09T09:44:05;18.60;99.90
21238;DHT22;10777;50.828;3.264;2022-09-09T09:46:33;18.60;99.90
21238;DHT22;10777;50.828;3.264;2022-09-09T09:49:04;18.50;99.90
21238;DHT22;10777;50.828;3.264;2022-09-09T09:51:33;18.50;99.90
21238;DHT22;10777;50.828;3.264;2022-09-09T09:54:15;18.70;99.90
21238;DHT22;10777;50.828;3.264;2022-09-09T09:56:44;18.60;99.90
21238;DHT22;10777;50.828;3.264;2022-09-09T09:59:37;18.70;99.90
21238;DHT22;10777;50.828;3.264;2022-09-09T10:02:20;18.50;99.90
21238;DHT22;10777;50.828;3.264;2022-09-09T10:05:02;18.60;99.90
21238;DHT22;10777;50.828;3.264;2022-09-09T10:07:29;18.90;99.90
21238;DHT22;10777;50.828;3.264;2022-09-09T10:09:56;19.00;99.90
21238;DHT22;10777;50.828;3.264;2022-09-09T10:12:47;19.20;99.90
21238;DHT22;10777;50.828;3.264;2022-09-09T10:15:29;19.20;99.90
21238;DHT22;10777;50.828;3.264;2022-09-09T10:30:19;18.90;99.90
21238;DHT22;10777;50.828;3.264;2022-09-09T10:32:55;19.00;99.90
21238;DHT22;10777;50.828;3.264;2022-09-09T10:35:48;19.10;99.90
21238;DHT22;10777;50.828;3.264;2022-09-09T10:38:38;19.40;99.90
21238;DHT22;10777;50.828;3.264;2022-09-09T10:41:15;19.60;99.90
21238;DHT22;10777;50.828;3.264;2022-09-09T10:47:05;19.70;99.90
21238;DHT22;10777;50.828;3.264;2022-09-09T10:52:58;19.60;99.90
21238;DHT22;10777;50.828;3.264;2022-09-09T10:55:48;19.80;99.90
21238;DHT22;10777;50.828;3.264;2022-09-09T10:58:22;19.80;99.90
21238;DHT22;10777;50.828;3.264;2022-09-09T11:00:56;20.00;99.90
21238;DHT22;10777;50.828;3.264;2022-09-09T11:03:28;20.20;99.90
21238;DHT22;10777;50.828;3.264;2022-09-09T11:06:05;20.20;99.90
21238;DHT22;10777;50.828;3.264;2022-09-09T11:08:35;20.40;99.90
21238;DHT22;10777;50.828;3.264;2022-09-09T11:11:04;20.50;99.90
21238;DHT22;10777;50.828;3.264;2022-09-09T11:13:55;20.40;99.90
21238;DHT22;10777;50.828;3.264;2022-09-09T11:16:33;20.20;99.90
21238;DHT22;10777;50.828;3.264;2022-09-09T11:19:13;20.20;99.90
21238;DHT22;10777;50.828;3.264;2022-09-09T11:21:46;20.30;99.90
21238;DHT22;10777;50.828;3.264;2022-09-09T11:24:26;20.20;99.90
21238;DHT22;10777;50.828;3.264;2022-09-09T11:27:07;20.30;99.90
21238;DHT22;10777;50.828;3.264;2022-09-09T11:36:03;20.00;99.90
21238;DHT22;10777;50.828;3.264;2022-09-09T11:38:52;20.00;99.90
21238;DHT22;10777;50.828;3.264;2022-09-09T11:41:19;19.90;99.90
21238;DHT22;10777;50.828;3.264;2022-09-09T11:43:49;20.10;99.90
21238;DHT22;10777;50.828;3.264;2022-09-09T11:46:20;20.20;99.90
21238;DHT22;10777;50.828;3.264;2022-09-09T11:49:05;20.20;99.90
21238;DHT22;10777;50.828;3.264;2022-09-09T11:51:33;19.90;99.90
21238;DHT22;10777;50.828;3.264;2022-09-09T11:54:04;19.90;99.90
21238;DHT22;10777;50.828;3.264;2022-09-09T11:56:48;20.10;99.90
21238;DHT22;10777;50.828;3.264;2022-09-09T11:59:24;20.10;99.90
21238;DHT22;10777;50.828;3.264;2022-09-09T12:02:03;20.20;99.90
21238;DHT22;10777;50.828;3.264;2022-09-09T12:04:57;20.30;99.90
21238;DHT22;10777;50.828;3.264;2022-09-09T12:07:33;20.40;99.90
21238;DHT22;10777;50.828;3.264;2022-09-09T12:10:20;20.70;99.90
21238;DHT22;10777;50.828;3.264;2022-09-09T12:12:47;20.70;99.90
21238;DHT22;10777;50.828;3.264;2022-09-09T12:15:21;20.60;99.90
21238;DHT22;10777;50.828;3.264;2022-09-09T12:17:50;20.50;99.90
21238;DHT22;10777;50.828;3.264;2022-09-09T12:20:36;20.50;99.90
21238;DHT22;10777;50.828;3.264;2022-09-09T12:23:17;20.50;99.90
21238;DHT22;10777;50.828;3.264;2022-09-09T12:29:04;20.70;99.90
21238;DHT22;10777;50.828;3.264;2022-09-09T12:31:43;20.40;99.90
21238;DHT22;10777;50.828;3.264;2022-09-09T12:34:32;20.50;99.90
21238;DHT22;10777;50.828;3.264;2022-09-09T12:37:12;20.60;99.90
21238;DHT22;10777;50.828;3.264;2022-09-09T12:39:45;20.90;99.90
21238;DHT22;10777;50.828;3.264;2022-09-09T12:42:20;21.00;99.90
21238;DHT22;10777;50.828;3.264;2022-09-09T12:44:52;20.80;99.90
21238;DHT22;10777;50.828;3.264;2022-09-09T12:47:19;20.80;99.90
21238;DHT22;10777;50.828;3.264;2022-09-09T12:49:48;20.80;99.90
21238;DHT22;10777;50.828;3.264;2022-09-09T12:52:29;20.90;99.90
21238;DHT22;10777;50.828;3.264;2022-09-09T12:54:57;20.90;99.90
21238;DHT22;10777;50.828;3.264;2022-09-09T12:57:24;21.00;99.90
21238;DHT22;10777;50.828;3.264;2022-09-09T12:59:51;21.70;99.90
21238;DHT22;10777;50.828;3.264;2022-09-09T13:02:21;22.40;99.90
21238;DHT22;10777;50.828;3.264;2022-09-09T13:04:48;22.40;99.90
21238;DHT22;10777;50.828;3.264;2022-09-09T13:07:16;22.50;99.90
21238;DHT22;10777;50.828;3.264;2022-09-09T13:09:43;22.50;99.90
21238;DHT22;10777;50.828;3.264;2022-09-09T13:12:19;22.30;99.90
21238;DHT22;10777;50.828;3.264;2022-09-09T13:14:49;22.30;99.90
21238;DHT22;10777;50.828;3.264;2022-09-09T13:17:22;22.00;99.90
21238;DHT22;10777;50.828;3.264;2022-09-09T13:19:50;22.20;99.90
21238;DHT22;10777;50.828;3.264;2022-09-09T13:22:39;22.00;99.90
21238;DHT22;10777;50.828;3.264;2022-09-09T13:25:19;22.50;99.90
21238;DHT22;10777;50.828;3.264;2022-09-09T13:28:04;22.50;99.90
21238;DHT22;10777;50.828;3.264;2022-09-09T13:30:32;22.30;99.90
21238;DHT22;10777;50.828;3.264;2022-09-09T13:33:05;22.40;99.90
21238;DHT22;10777;50.828;3.264;2022-09-09T13:35:32;22.60;99.90
21238;DHT22;10777;50.828;3.264;2022-09-09T13:38:06;22.40;99.90
21238;DHT22;10777;50.828;3.264;2022-09-09T13:40:33;22.30;99.90
21238;DHT22;10777;50.828;3.264;2022-09-09T13:42:59;22.30;99.90
21238;DHT22;10777;50.828;3.264;2022-09-09T13:45:26;22.60;99.90
21238;DHT22;10777;50.828;3.264;2022-09-09T13:47:53;22.50;99.90
21238;DHT22;10777;50.828;3.264;2022-09-09T13:50:25;22.40;99.90
21238;DHT22;10777;50.828;3.264;2022-09-09T13:52:54;22.70;99.90
21238;DHT22;10777;50.828;3.264;2022-09-09T13:55:24;23.00;99.90
21238;DHT22;10777;50.828;3.264;2022-09-09T13:57:54;23.30;99.90
21238;DHT22;10777;50.828;3.264;2022-09-09T14:00:20;23.80;99.90
21238;DHT22;10777;50.828;3.264;2022-09-09T14:02:47;23.90;99.90
21238;DHT22;10777;50.828;3.264;2022-09-09T14:05:13;23.90;99.90
21238;DHT22;10777;50.828;3.264;2022-09-09T14:07:42;23.70;99.90
21238;DHT22;10777;50.828;3.264;2022-09-09T14:10:09;23.80;99.90
21238;DHT22;10777;50.828;3.264;2022-09-09T14:12:34;23.60;99.90
21238;DHT22;10777;50.828;3.264;2022-09-09T14:15:02;22.10;99.90
21238;DHT22;10777;50.828;3.264;2022-09-09T14:17:28;23.20;99.90
21238;DHT22;10777;50.828;3.264;2022-09-09T14:19:55;22.80;99.90
21238;DHT22;10777;50.828;3.264;2022-09-09T14:22:22;22.40;99.90
21238;DHT22;10777;50.828;3.264;2022-09-09T14:24:49;22.30;99.90
21238;DHT22;10777;50.828;3.264;2022-09-09T14:27:16;22.00;99.90
21238;DHT22;10777;50.828;3.264;2022-09-09T14:29:44;21.90;99.90
21238;DHT22;10777;50.828;3.264;2022-09-09T14:32:11;21.90;99.90
21238;DHT22;10777;50.828;3.264;2022-09-09T14:34:37;21.90;99.90
21238;DHT22;10777;50.828;3.264;2022-09-09T14:37:03;22.00;99.90
21238;DHT22;10777;50.828;3.264;2022-09-09T14:39:29;21.90;99.90
21238;DHT22;10777;50.828;3.264;2022-09-09T14:41:56;21.90;99.90
21238;DHT22;10777;50.828;3.264;2022-09-09T14:44:21;21.60;99.90
21238;DHT22;10777;50.828;3.264;2022-09-09T14:46:47;21.50;99.90
21238;DHT22;10777;50.828;3.264;2022-09-09T14:49:15;21.30;99.90
21238;DHT22;10777;50.828;3.264;2022-09-09T14:51:41;21.70;99.90
21238;DHT22;10777;50.828;3.264;2022-09-09T14:54:07;21.60;99.90
21238;DHT22;10777;50.828;3.264;2022-09-09T14:56:34;21.60;99.90
21238;DHT22;10777;50.828;3.264;2022-09-09T14:59:00;21.50;99.90
21238;DHT22;10777;50.828;3.264;2022-09-09T15:01:27;21.40;99.90
21238;DHT22;10777;50.828;3.264;2022-09-09T15:03:57;21.40;99.90
21238;DHT22;10777;50.828;3.264;2022-09-09T15:06:24;21.30;99.90
21238;DHT22;10777;50.828;3.264;2022-09-09T15:08:52;21.10;99.90
21238;DHT22;10777;50.828;3.264;2022-09-09T15:11:19;20.80;99.90
21238;DHT22;10777;50.828;3.264;2022-09-09T15:13:46;20.40;99.90
21238;DHT22;10777;50.828;3.264;2022-09-09T15:16:15;20.20;99.90
21238;DHT22;10777;50.828;3.264;2022-09-09T15:18:42;20.00;99.90
21238;DHT22;10777;50.828;3.264;2022-09-09T15:21:14;20.10;99.90
21238;DHT22;10777;50.828;3.264;2022-09-09T15:23:45;20.20;99.90
21238;DHT22;10777;50.828;3.264;2022-09-09T15:26:11;20.40;99.90
21238;DHT22;10777;50.828;3.264;2022-09-09T15:28:39;20.80;99.90
21238;DHT22;10777;50.828;3.264;2022-09-09T15:31:09;21.00;99.90
21238;DHT22;10777;50.828;3.264;2022-09-09T15:33:36;21.60;99.90
21238;DHT22;10777;50.828;3.264;2022-09-09T15:36:20;21.80;99.90
21238;DHT22;10777;50.828;3.264;2022-09-09T15:38:47;21.90;99.90
21238;DHT22;10777;50.828;3.264;2022-09-09T15:41:14;21.60;99.90
21238;DHT22;10777;50.828;3.264;2022-09-09T15:43:44;21.60;99.90
21238;DHT22;10777;50.828;3.264;2022-09-09T15:46:32;21.60;99.90
21238;DHT22;10777;50.828;3.264;2022-09-09T15:49:04;21.40;99.90
21238;DHT22;10777;50.828;3.264;2022-09-09T15:51:30;21.40;99.90
21238;DHT22;10777;50.828;3.264;2022-09-09T15:53:58;21.00;99.90
21238;DHT22;10777;50.828;3.264;2022-09-09T15:56:25;21.20;99.90
21238;DHT22;10777;50.828;3.264;2022-09-09T15:58:53;21.10;99.90
21238;DHT22;10777;50.828;3.264;2022-09-09T16:01:20;21.00;99.90
21238;DHT22;10777;50.828;3.264;2022-09-09T16:03:47;21.20;99.90
21238;DHT22;10777;50.828;3.264;2022-09-09T16:06:14;21.30;99.90
21238;DHT22;10777;50.828;3.264;2022-09-09T16:08:43;21.40;99.90
21238;DHT22;10777;50.828;3.264;2022-09-09T16:11:14;21.20;99.90
21238;DHT22;10777;50.828;3.264;2022-09-09T16:13:42;21.10;99.90
21238;DHT22;10777;50.828;3.264;2022-09-09T16:16:11;21.10;99.90
21238;DHT22;10777;50.828;3.264;2022-09-09T16:18:40;21.30;99.90
21238;DHT22;10777;50.828;3.264;2022-09-09T16:21:07;21.00;99.90
21238;DHT22;10777;50.828;3.264;2022-09-09T16:23:34;20.90;99.90
21238;DHT22;10777;50.828;3.264;2022-09-09T16:26:00;21.10;99.90
21238;DHT22;10777;50.828;3.264;2022-09-09T16:28:27;21.00;99.90
21238;DHT22;10777;50.828;3.264;2022-09-09T16:30:53;20.90;99.90
21238;DHT22;10777;50.828;3.264;2022-09-09T16:33:19;20.70;99.90
21238;DHT22;10777;50.828;3.264;2022-09-09T16:35:44;20.70;99.90
21238;DHT22;10777;50.828;3.264;2022-09-09T16:38:11;20.70;99.90
21238;DHT22;10777;50.828;3.264;2022-09-09T16:40:37;20.80;99.90
21238;DHT22;10777;50.828;3.264;2022-09-09T16:43:04;20.50;99.90
21238;DHT22;10777;50.828;3.264;2022-09-09T16:45:31;20.50;99.90
21238;DHT22;10777;50.828;3.264;2022-09-09T16:47:58;20.40;99.90